sensor_id;sensor_type;location;lat;lon;timestamp;temperature;humidity
24146;DHT22;12308;50.948;4.706;2022-10-16T00:01:46;14.70;99.90
24146;DHT22;12308;50.948;4.706;2022-10-16T00:04:12;14.70;99.90
24146;DHT22;12308;50.948;4.706;2022-10-16T00:06:38;14.70;99.90
24146;DHT22;12308;50.948;4.706;2022-10-16T00:09:04;14.60;99.90
24146;DHT22;12308;50.948;4.706;2022-10-16T00:11:33;14.70;99.90
24146;DHT22;12308;50.948;4.706;2022-10-16T00:14:01;14.70;99.90
24146;DHT22;12308;50.948;4.706;2022-10-16T00:16:28;14.70;99.90
24146;DHT22;12308;50.948;4.706;2022-10-16T00:18:54;14.60;99.90
24146;DHT22;12308;50.948;4.706;2022-10-16T00:21:22;14.60;99.90
24146;DHT22;12308;50.948;4.706;2022-10-16T00:23:56;14.60;99.90
24146;DHT22;12308;50.948;4.706;2022-10-16T00:26:22;14.60;99.90
24146;DHT22;12308;50.948;4.706;2022-10-16T00:28:49;14.60;99.90
24146;DHT22;12308;50.948;4.706;2022-10-16T00:31:17;14.60;99.90
24146;DHT22;12308;50.948;4.706;2022-10-16T00:33:43;14.50;99.90
24146;DHT22;12308;50.948;4.706;2022-10-16T00:36:12;14.40;99.90
24146;DHT22;12308;50.948;4.706;2022-10-16T00:38:38;14.50;99.90
24146;DHT22;12308;50.948;4.706;2022-10-16T00:41:05;14.40;99.90
24146;DHT22;12308;50.948;4.706;2022-10-16T00:46:41;14.30;99.90
24146;DHT22;12308;50.948;4.706;2022-10-16T00:49:16;14.20;99.90
24146;DHT22;12308;50.948;4.706;2022-10-16T00:51:43;14.30;99.90
24146;DHT22;12308;50.948;4.706;2022-10-16T00:54:14;14.20;99.90
24146;DHT22;12308;50.948;4.706;2022-10-16T00:56:41;14.30;99.90
24146;DHT22;12308;50.948;4.706;2022-10-16T00:59:15;14.20;99.90
24146;DHT22;12308;50.948;4.706;2022-10-16T01:01:41;14.20;99.90
24146;DHT22;12308;50.948;4.706;2022-10-16T01:04:06;14.20;99.90
24146;DHT22;12308;50.948;4.706;2022-10-16T01:12:38;14.10;99.90
24146;DHT22;12308;50.948;4.706;2022-10-16T01:17:51;14.10;99.90
24146;DHT22;12308;50.948;4.706;2022-10-16T01:20:42;14.10;99.90
24146;DHT22;12308;50.948;4.706;2022-10-16T01:31:41;14.10;99.90
24146;DHT22;12308;50.948;4.706;2022-10-16T01:34:16;14.10;99.90
24146;DHT22;12308;50.948;4.706;2022-10-16T01:37:00;14.10;99.90
24146;DHT22;12308;50.948;4.706;2022-10-16T01:39:30;14.10;99.90
24146;DHT22;12308;50.948;4.706;2022-10-16T01:42:16;14.00;99.90
24146;DHT22;12308;50.948;4.706;2022-10-16T01:44:43;13.90;99.90
24146;DHT22;12308;50.948;4.706;2022-10-16T01:47:13;13.90;99.90
24146;DHT22;12308;50.948;4.706;2022-10-16T01:49:40;13.90;99.90
24146;DHT22;12308;50.948;4.706;2022-10-16T01:52:10;14.00;99.90
24146;DHT22;12308;50.948;4.706;2022-10-16T01:54:39;14.00;99.90
24146;DHT22;12308;50.948;4.706;2022-10-16T01:57:06;14.00;99.90
24146;DHT22;12308;50.948;4.706;2022-10-16T01:59:37;13.80;99.90
24146;DHT22;12308;50.948;4.706;2022-10-16T02:02:06;13.90;99.90
24146;DHT22;12308;50.948;4.706;2022-10-16T02:05:04;14.00;99.90
24146;DHT22;12308;50.948;4.706;2022-10-16T02:07:30;13.90;99.90
24146;DHT22;12308;50.948;4.706;2022-10-16T02:09:56;13.90;99.90
24146;DHT22;12308;50.948;4.706;2022-10-16T02:12:31;13.80;99.90
24146;DHT22;12308;50.948;4.706;2022-10-16T02:14:57;13.80;99.90
24146;DHT22;12308;50.948;4.706;2022-10-16T02:17:23;13.90;99.90
24146;DHT22;12308;50.948;4.706;2022-10-16T02:19:51;13.90;99.90
24146;DHT22;12308;50.948;4.706;2022-10-16T02:22:39;13.80;99.90
24146;DHT22;12308;50.948;4.706;2022-10-16T02:25:14;13.90;99.90
24146;DHT22;12308;50.948;4.706;2022-10-16T02:27:46;13.80;99.90
24146;DHT22;12308;50.948;4.706;2022-10-16T02:32:46;14.00;99.90
24146;DHT22;12308;50.948;4.706;2022-10-16T02:35:14;14.00;99.90
24146;DHT22;12308;50.948;4.706;2022-10-16T02:37:40;14.00;99.90
24146;DHT22;12308;50.948;4.706;2022-10-16T02:40:07;14.00;99.90
24146;DHT22;12308;50.948;4.706;2022-10-16T02:42:35;13.90;99.90
24146;DHT22;12308;50.948;4.706;2022-10-16T02:45:02;14.00;99.90
24146;DHT22;12308;50.948;4.706;2022-10-16T02:47:27;13.90;99.90
24146;DHT22;12308;50.948;4.706;2022-10-16T02:49:53;13.90;99.90
24146;DHT22;12308;50.948;4.706;2022-10-16T02:52:19;13.90;99.90
24146;DHT22;12308;50.948;4.706;2022-10-16T02:54:45;13.90;99.90
24146;DHT22;12308;50.948;4.706;2022-10-16T02:57:10;13.90;99.90
24146;DHT22;12308;50.948;4.706;2022-10-16T02:59:37;13.90;99.90
24146;DHT22;12308;50.948;4.706;2022-10-16T03:02:03;13.90;99.90
24146;DHT22;12308;50.948;4.706;2022-10-16T03:04:28;13.90;99.90
24146;DHT22;12308;50.948;4.706;2022-10-16T03:06:54;13.90;99.90
24146;DHT22;12308;50.948;4.706;2022-10-16T03:09:19;13.90;99.90
24146;DHT22;12308;50.948;4.706;2022-10-16T03:11:45;13.80;99.90
24146;DHT22;12308;50.948;4.706;2022-10-16T03:14:11;13.90;99.90
24146;DHT22;12308;50.948;4.706;2022-10-16T03:16:36;14.00;99.90
24146;DHT22;12308;50.948;4.706;2022-10-16T03:19:02;13.90;99.90
24146;DHT22;12308;50.948;4.706;2022-10-16T03:21:27;13.80;99.90
24146;DHT22;12308;50.948;4.706;2022-10-16T03:23:53;13.90;99.90
24146;DHT22;12308;50.948;4.706;2022-10-16T03:26:19;13.90;99.90
24146;DHT22;12308;50.948;4.706;2022-10-16T03:28:44;13.90;99.90
24146;DHT22;12308;50.948;4.706;2022-10-16T03:31:10;14.00;99.90
24146;DHT22;12308;50.948;4.706;2022-10-16T03:33:35;14.00;99.90
24146;DHT22;12308;50.948;4.706;2022-10-16T03:36:01;13.90;99.90
24146;DHT22;12308;50.948;4.706;2022-10-16T03:38:27;13.90;99.90
24146;DHT22;12308;50.948;4.706;2022-10-16T03:40:52;13.90;99.90
24146;DHT22;12308;50.948;4.706;2022-10-16T03:43:18;14.00;99.90
24146;DHT22;12308;50.948;4.706;2022-10-16T03:45:44;14.00;99.90
24146;DHT22;12308;50.948;4.706;2022-10-16T03:48:10;14.10;99.90
24146;DHT22;12308;50.948;4.706;2022-10-16T03:50:35;14.00;99.90
24146;DHT22;12308;50.948;4.706;2022-10-16T03:53:01;14.10;99.90
24146;DHT22;12308;50.948;4.706;2022-10-16T03:55:27;14.00;99.90
24146;DHT22;12308;50.948;4.706;2022-10-16T03:57:52;14.00;99.90
24146;DHT22;12308;50.948;4.706;2022-10-16T04:00:18;14.00;99.90
24146;DHT22;12308;50.948;4.706;2022-10-16T04:02:44;14.00;99.90
24146;DHT22;12308;50.948;4.706;2022-10-16T04:05:10;14.00;99.90
24146;DHT22;12308;50.948;4.706;2022-10-16T04:07:35;14.10;99.90
24146;DHT22;12308;50.948;4.706;2022-10-16T04:10:01;14.00;99.90
24146;DHT22;12308;50.948;4.706;2022-10-16T04:12:27;14.00;99.90
24146;DHT22;12308;50.948;4.706;2022-10-16T04:14:52;14.00;99.90
24146;DHT22;12308;50.948;4.706;2022-10-16T04:17:18;14.20;99.90
24146;DHT22;12308;50.948;4.706;2022-10-16T04:19:44;14.20;99.90
24146;DHT22;12308;50.948;4.706;2022-10-16T04:22:09;14.20;99.90
24146;DHT22;12308;50.948;4.706;2022-10-16T04:24:35;14.10;99.90
24146;DHT22;12308;50.948;4.706;2022-10-16T04:27:01;14.10;99.90
24146;DHT22;12308;50.948;4.706;2022-10-16T04:29:26;14.00;99.90
24146;DHT22;12308;50.948;4.706;2022-10-16T04:31:52;14.00;99.90
24146;DHT22;12308;50.948;4.706;2022-10-16T04:34:17;14.10;99.90
24146;DHT22;12308;50.948;4.706;2022-10-16T04:36:43;14.00;99.90
24146;DHT22;12308;50.948;4.706;2022-10-16T04:39:08;14.00;99.90
24146;DHT22;12308;50.948;4.706;2022-10-16T04:41:34;14.00;99.90
24146;DHT22;12308;50.948;4.706;2022-10-16T04:44:00;13.90;99.90
24146;DHT22;12308;50.948;4.706;2022-10-16T04:46:25;13.80;99.90
24146;DHT22;12308;50.948;4.706;2022-10-16T04:48:51;13.80;99.90
24146;DHT22;12308;50.948;4.706;2022-10-16T04:51:16;13.80;99.90
24146;DHT22;12308;50.948;4.706;2022-10-16T04:53:43;13.80;99.90
24146;DHT22;12308;50.948;4.706;2022-10-16T04:56:09;13.80;99.90
24146;DHT22;12308;50.948;4.706;2022-10-16T04:58:35;13.80;99.90
24146;DHT22;12308;50.948;4.706;2022-10-16T05:01:00;13.80;99.90
24146;DHT22;12308;50.948;4.706;2022-10-16T05:03:26;13.80;99.90
24146;DHT22;12308;50.948;4.706;2022-10-16T05:05:51;13.80;99.90
24146;DHT22;12308;50.948;4.706;2022-10-16T05:08:17;13.80;99.90
24146;DHT22;12308;50.948;4.706;2022-10-16T05:10:44;13.80;99.90
24146;DHT22;12308;50.948;4.706;2022-10-16T05:13:10;13.80;99.90
24146;DHT22;12308;50.948;4.706;2022-10-16T05:15:35;13.80;99.90
24146;DHT22;12308;50.948;4.706;2022-10-16T05:18:01;13.80;99.90
24146;DHT22;12308;50.948;4.706;2022-10-16T05:20:27;13.70;99.90
24146;DHT22;12308;50.948;4.706;2022-10-16T05:22:53;13.70;99.90
24146;DHT22;12308;50.948;4.706;2022-10-16T05:25:19;13.70;99.90
24146;DHT22;12308;50.948;4.706;2022-10-16T05:27:47;13.70;99.90
24146;DHT22;12308;50.948;4.706;2022-10-16T05:30:14;13.60;99.90
24146;DHT22;12308;50.948;4.706;2022-10-16T05:32:39;13.50;99.90
24146;DHT22;12308;50.948;4.706;2022-10-16T05:35:05;13.50;99.90
24146;DHT22;12308;50.948;4.706;2022-10-16T05:37:31;13.50;99.90
24146;DHT22;12308;50.948;4.706;2022-10-16T05:39:56;13.50;99.90
24146;DHT22;12308;50.948;4.706;2022-10-16T05:42:22;13.50;99.90
24146;DHT22;12308;50.948;4.706;2022-10-16T05:44:48;13.60;99.90
24146;DHT22;12308;50.948;4.706;2022-10-16T05:47:13;13.50;99.90
24146;DHT22;12308;50.948;4.706;2022-10-16T05:49:39;13.50;99.90
24146;DHT22;12308;50.948;4.706;2022-10-16T05:52:05;13.40;99.90
24146;DHT22;12308;50.948;4.706;2022-10-16T05:54:31;13.50;99.90
24146;DHT22;12308;50.948;4.706;2022-10-16T05:56:57;13.40;99.90
24146;DHT22;12308;50.948;4.706;2022-10-16T05:59:22;13.40;99.90
24146;DHT22;12308;50.948;4.706;2022-10-16T06:01:48;13.50;99.90
24146;DHT22;12308;50.948;4.706;2022-10-16T06:04:14;13.50;99.90
24146;DHT22;12308;50.948;4.706;2022-10-16T06:06:40;13.40;99.90
24146;DHT22;12308;50.948;4.706;2022-10-16T06:09:05;13.50;99.90
24146;DHT22;12308;50.948;4.706;2022-10-16T06:11:32;13.40;99.90
24146;DHT22;12308;50.948;4.706;2022-10-16T06:14:00;13.50;99.90
24146;DHT22;12308;50.948;4.706;2022-10-16T06:16:36;13.40;99.90
24146;DHT22;12308;50.948;4.706;2022-10-16T06:19:02;13.30;99.90
24146;DHT22;12308;50.948;4.706;2022-10-16T06:21:31;13.30;99.90
24146;DHT22;12308;50.948;4.706;2022-10-16T06:23:58;13.30;99.90
24146;DHT22;12308;50.948;4.706;2022-10-16T06:26:26;13.30;99.90
24146;DHT22;12308;50.948;4.706;2022-10-16T06:28:54;13.50;99.90
24146;DHT22;12308;50.948;4.706;2022-10-16T06:31:19;13.50;99.90
24146;DHT22;12308;50.948;4.706;2022-10-16T06:33:45;13.50;99.90
24146;DHT22;12308;50.948;4.706;2022-10-16T06:36:14;13.40;99.90
24146;DHT22;12308;50.948;4.706;2022-10-16T06:38:40;13.30;99.90
24146;DHT22;12308;50.948;4.706;2022-10-16T06:41:07;13.40;99.90
24146;DHT22;12308;50.948;4.706;2022-10-16T06:43:33;13.40;99.90
24146;DHT22;12308;50.948;4.706;2022-10-16T06:46:04;13.40;99.90
24146;DHT22;12308;50.948;4.706;2022-10-16T06:48:30;13.50;99.90
24146;DHT22;12308;50.948;4.706;2022-10-16T06:51:04;13.50;99.90
24146;DHT22;12308;50.948;4.706;2022-10-16T06:53:33;13.50;99.90
24146;DHT22;12308;50.948;4.706;2022-10-16T06:56:07;13.60;99.90
24146;DHT22;12308;50.948;4.706;2022-10-16T06:58:33;13.60;99.90
24146;DHT22;12308;50.948;4.706;2022-10-16T07:00:58;13.70;99.90
24146;DHT22;12308;50.948;4.706;2022-10-16T07:03:24;13.90;99.90
24146;DHT22;12308;50.948;4.706;2022-10-16T07:05:50;14.00;99.90
24146;DHT22;12308;50.948;4.706;2022-10-16T07:08:15;14.00;99.90
24146;DHT22;12308;50.948;4.706;2022-10-16T07:10:41;14.20;99.90
24146;DHT22;12308;50.948;4.706;2022-10-16T07:13:06;14.20;99.90
24146;DHT22;12308;50.948;4.706;2022-10-16T07:15:33;14.20;99.90
24146;DHT22;12308;50.948;4.706;2022-10-16T07:17:59;14.30;99.90
24146;DHT22;12308;50.948;4.706;2022-10-16T07:20:25;14.30;99.90
24146;DHT22;12308;50.948;4.706;2022-10-16T07:22:51;14.30;99.90
24146;DHT22;12308;50.948;4.706;2022-10-16T07:25:17;14.40;99.90
24146;DHT22;12308;50.948;4.706;2022-10-16T07:27:43;14.50;99.90
24146;DHT22;12308;50.948;4.706;2022-10-16T07:30:09;14.40;99.90
24146;DHT22;12308;50.948;4.706;2022-10-16T07:32:34;14.50;99.90
24146;DHT22;12308;50.948;4.706;2022-10-16T07:35:00;14.40;99.90
24146;DHT22;12308;50.948;4.706;2022-10-16T07:37:26;14.50;99.90
24146;DHT22;12308;50.948;4.706;2022-10-16T07:39:51;14.50;99.90
24146;DHT22;12308;50.948;4.706;2022-10-16T07:42:17;14.50;99.90
24146;DHT22;12308;50.948;4.706;2022-10-16T07:44:42;14.50;99.90
24146;DHT22;12308;50.948;4.706;2022-10-16T07:47:08;14.70;99.90
24146;DHT22;12308;50.948;4.706;2022-10-16T07:49:34;14.70;99.90
24146;DHT22;12308;50.948;4.706;2022-10-16T07:51:59;14.90;99.90
24146;DHT22;12308;50.948;4.706;2022-10-16T07:54:25;14.90;99.90
24146;DHT22;12308;50.948;4.706;2022-10-16T07:56:51;14.80;99.90
24146;DHT22;12308;50.948;4.706;2022-10-16T07:59:16;14.90;99.90
24146;DHT22;12308;50.948;4.706;2022-10-16T08:01:42;15.00;99.90
24146;DHT22;12308;50.948;4.706;2022-10-16T08:04:08;14.90;99.90
24146;DHT22;12308;50.948;4.706;2022-10-16T08:06:38;15.10;99.90
24146;DHT22;12308;50.948;4.706;2022-10-16T08:09:05;15.10;99.90
24146;DHT22;12308;50.948;4.706;2022-10-16T08:11:32;15.20;99.90
24146;DHT22;12308;50.948;4.706;2022-10-16T08:13:57;15.40;99.90
24146;DHT22;12308;50.948;4.706;2022-10-16T08:16:23;15.40;99.90
24146;DHT22;12308;50.948;4.706;2022-10-16T08:18:49;15.40;99.90
24146;DHT22;12308;50.948;4.706;2022-10-16T08:21:19;15.50;99.90
24146;DHT22;12308;50.948;4.706;2022-10-16T08:23:45;15.50;99.90
24146;DHT22;12308;50.948;4.706;2022-10-16T08:26:12;15.60;99.90
24146;DHT22;12308;50.948;4.706;2022-10-16T08:28:38;15.60;99.90
24146;DHT22;12308;50.948;4.706;2022-10-16T08:31:12;15.60;99.90
24146;DHT22;12308;50.948;4.706;2022-10-16T08:33:41;15.70;99.90
24146;DHT22;12308;50.948;4.706;2022-10-16T08:36:09;15.80;99.90
24146;DHT22;12308;50.948;4.706;2022-10-16T08:38:34;15.90;99.90
24146;DHT22;12308;50.948;4.706;2022-10-16T08:41:32;15.90;99.90
24146;DHT22;12308;50.948;4.706;2022-10-16T08:44:27;15.80;99.90
24146;DHT22;12308;50.948;4.706;2022-10-16T08:47:19;15.90;99.90
24146;DHT22;12308;50.948;4.706;2022-10-16T08:50:09;16.00;99.90
24146;DHT22;12308;50.948;4.706;2022-10-16T08:52:39;16.10;99.90
24146;DHT22;12308;50.948;4.706;2022-10-16T08:55:06;16.10;99.90
24146;DHT22;12308;50.948;4.706;2022-10-16T08:57:31;16.20;99.90
24146;DHT22;12308;50.948;4.706;2022-10-16T09:00:01;16.20;99.90
24146;DHT22;12308;50.948;4.706;2022-10-16T09:02:55;16.40;99.90
24146;DHT22;12308;50.948;4.706;2022-10-16T09:16:38;16.60;99.90
24146;DHT22;12308;50.948;4.706;2022-10-16T09:19:20;16.60;99.90
24146;DHT22;12308;50.948;4.706;2022-10-16T09:21:48;16.60;99.90
24146;DHT22;12308;50.948;4.706;2022-10-16T09:26:41;16.70;99.90
24146;DHT22;12308;50.948;4.706;2022-10-16T09:29:13;16.70;99.90
24146;DHT22;12308;50.948;4.706;2022-10-16T09:31:39;16.70;99.90
24146;DHT22;12308;50.948;4.706;2022-10-16T09:34:06;16.70;99.90
24146;DHT22;12308;50.948;4.706;2022-10-16T09:36:40;16.90;99.90
24146;DHT22;12308;50.948;4.706;2022-10-16T09:39:09;16.90;99.90
24146;DHT22;12308;50.948;4.706;2022-10-16T09:41:39;16.90;99.90
24146;DHT22;12308;50.948;4.706;2022-10-16T09:44:26;17.00;99.90
24146;DHT22;12308;50.948;4.706;2022-10-16T09:47:15;17.00;99.90
24146;DHT22;12308;50.948;4.706;2022-10-16T09:50:00;17.10;99.90
24146;DHT22;12308;50.948;4.706;2022-10-16T09:52:32;17.10;99.90
24146;DHT22;12308;50.948;4.706;2022-10-16T09:55:00;17.20;99.90
24146;DHT22;12308;50.948;4.706;2022-10-16T09:57:26;17.40;99.90
24146;DHT22;12308;50.948;4.706;2022-10-16T09:59:54;17.50;99.90
24146;DHT22;12308;50.948;4.706;2022-10-16T10:02:35;17.60;99.90
24146;DHT22;12308;50.948;4.706;2022-10-16T10:05:02;17.50;99.90
24146;DHT22;12308;50.948;4.706;2022-10-16T10:07:38;17.50;99.90
24146;DHT22;12308;50.948;4.706;2022-10-16T10:10:18;17.50;99.90
24146;DHT22;12308;50.948;4.706;2022-10-16T10:12:45;17.50;99.90
24146;DHT22;12308;50.948;4.706;2022-10-16T10:15:11;17.60;99.90
24146;DHT22;12308;50.948;4.706;2022-10-16T10:17:53;17.60;99.90
24146;DHT22;12308;50.948;4.706;2022-10-16T10:22:50;17.60;99.90
24146;DHT22;12308;50.948;4.706;2022-10-16T10:30:56;17.90;99.90
24146;DHT22;12308;50.948;4.706;2022-10-16T10:33:34;18.00;99.90
24146;DHT22;12308;50.948;4.706;2022-10-16T10:36:14;18.10;99.90
24146;DHT22;12308;50.948;4.706;2022-10-16T10:39:34;18.30;99.90
24146;DHT22;12308;50.948;4.706;2022-10-16T10:50:02;18.80;99.90
24146;DHT22;12308;50.948;4.706;2022-10-16T10:55:56;19.40;99.90
24146;DHT22;12308;50.948;4.706;2022-10-16T11:01:17;19.30;99.90
24146;DHT22;12308;50.948;4.706;2022-10-16T11:09:28;19.30;99.90
24146;DHT22;12308;50.948;4.706;2022-10-16T11:12:01;19.10;99.90
24146;DHT22;12308;50.948;4.706;2022-10-16T11:17:10;19.40;99.90
24146;DHT22;12308;50.948;4.706;2022-10-16T11:23:24;19.50;99.90
24146;DHT22;12308;50.948;4.706;2022-10-16T11:25:33;19.60;99.90
24146;DHT22;12308;50.948;4.706;2022-10-16T11:28:14;19.60;99.90
24146;DHT22;12308;50.948;4.706;2022-10-16T11:30:51;19.70;99.90
24146;DHT22;12308;50.948;4.706;2022-10-16T11:41:53;19.80;99.90
24146;DHT22;12308;50.948;4.706;2022-10-16T11:44:38;19.70;99.90
24146;DHT22;12308;50.948;4.706;2022-10-16T11:52:53;19.60;99.90
24146;DHT22;12308;50.948;4.706;2022-10-16T11:55:34;19.80;99.90
24146;DHT22;12308;50.948;4.706;2022-10-16T11:58:05;20.00;99.90
24146;DHT22;12308;50.948;4.706;2022-10-16T12:00:46;20.00;99.90
24146;DHT22;12308;50.948;4.706;2022-10-16T12:08:26;19.80;99.90
24146;DHT22;12308;50.948;4.706;2022-10-16T12:10:53;19.90;99.90
24146;DHT22;12308;50.948;4.706;2022-10-16T12:13:38;19.90;99.90
24146;DHT22;12308;50.948;4.706;2022-10-16T12:16:21;19.90;99.90
24146;DHT22;12308;50.948;4.706;2022-10-16T12:18:47;19.90;99.90
24146;DHT22;12308;50.948;4.706;2022-10-16T12:21:15;20.00;99.90
24146;DHT22;12308;50.948;4.706;2022-10-16T12:23:52;20.30;99.90
24146;DHT22;12308;50.948;4.706;2022-10-16T12:26:31;20.60;99.90
24146;DHT22;12308;50.948;4.706;2022-10-16T12:31:42;20.90;99.90
24146;DHT22;12308;50.948;4.706;2022-10-16T12:34:29;21.10;99.90
24146;DHT22;12308;50.948;4.706;2022-10-16T12:36:56;21.20;99.90
24146;DHT22;12308;50.948;4.706;2022-10-16T12:39:32;21.10;99.90
24146;DHT22;12308;50.948;4.706;2022-10-16T12:42:19;21.20;99.90
24146;DHT22;12308;50.948;4.706;2022-10-16T12:44:45;21.20;99.90
24146;DHT22;12308;50.948;4.706;2022-10-16T12:49:57;21.20;99.90
24146;DHT22;12308;50.948;4.706;2022-10-16T12:55:00;21.60;99.90
24146;DHT22;12308;50.948;4.706;2022-10-16T13:08:48;21.60;99.90
24146;DHT22;12308;50.948;4.706;2022-10-16T13:11:35;21.60;99.90
24146;DHT22;12308;50.948;4.706;2022-10-16T13:19:56;21.70;99.90
24146;DHT22;12308;50.948;4.706;2022-10-16T13:22:59;21.90;99.90
24146;DHT22;12308;50.948;4.706;2022-10-16T13:28:28;21.70;99.90
24146;DHT22;12308;50.948;4.706;2022-10-16T13:30:57;21.70;99.90
24146;DHT22;12308;50.948;4.706;2022-10-16T13:33:41;21.70;99.90
24146;DHT22;12308;50.948;4.706;2022-10-16T13:36:19;21.80;99.90
24146;DHT22;12308;50.948;4.706;2022-10-16T13:38:45;21.60;99.90
24146;DHT22;12308;50.948;4.706;2022-10-16T13:41:17;21.50;99.90
24146;DHT22;12308;50.948;4.706;2022-10-16T13:43:49;21.50;99.90
24146;DHT22;12308;50.948;4.706;2022-10-16T13:48:43;21.80;99.90
24146;DHT22;12308;50.948;4.706;2022-10-16T13:51:17;22.00;99.90
24146;DHT22;12308;50.948;4.706;2022-10-16T13:53:44;22.00;99.90
24146;DHT22;12308;50.948;4.706;2022-10-16T13:56:13;22.00;99.90
24146;DHT22;12308;50.948;4.706;2022-10-16T13:58:39;22.00;99.90
24146;DHT22;12308;50.948;4.706;2022-10-16T14:01:14;21.90;99.90
24146;DHT22;12308;50.948;4.706;2022-10-16T14:03:41;21.60;99.90
24146;DHT22;12308;50.948;4.706;2022-10-16T14:06:13;21.30;99.90
24146;DHT22;12308;50.948;4.706;2022-10-16T14:08:47;21.30;99.90
24146;DHT22;12308;50.948;4.706;2022-10-16T14:11:23;21.20;99.90
24146;DHT22;12308;50.948;4.706;2022-10-16T14:13:50;21.30;99.90
24146;DHT22;12308;50.948;4.706;2022-10-16T14:16:27;21.30;99.90
24146;DHT22;12308;50.948;4.706;2022-10-16T14:19:00;21.30;99.90
24146;DHT22;12308;50.948;4.706;2022-10-16T14:21:26;21.20;99.90
24146;DHT22;12308;50.948;4.706;2022-10-16T14:23:52;21.20;99.90
24146;DHT22;12308;50.948;4.706;2022-10-16T14:26:21;21.10;99.90
24146;DHT22;12308;50.948;4.706;2022-10-16T14:28:48;21.10;99.90
24146;DHT22;12308;50.948;4.706;2022-10-16T14:31:26;21.10;99.90
24146;DHT22;12308;50.948;4.706;2022-10-16T14:33:52;21.10;99.90
24146;DHT22;12308;50.948;4.706;2022-10-16T14:36:18;21.10;99.90
24146;DHT22;12308;50.948;4.706;2022-10-16T14:39:02;21.10;99.90
24146;DHT22;12308;50.948;4.706;2022-10-16T14:41:31;21.10;99.90
24146;DHT22;12308;50.948;4.706;2022-10-16T14:44:02;20.80;99.90
24146;DHT22;12308;50.948;4.706;2022-10-16T14:46:32;20.70;99.90
24146;DHT22;12308;50.948;4.706;2022-10-16T14:51:37;20.60;99.90
24146;DHT22;12308;50.948;4.706;2022-10-16T14:54:03;20.50;99.90
24146;DHT22;12308;50.948;4.706;2022-10-16T14:56:55;20.60;99.90
24146;DHT22;12308;50.948;4.706;2022-10-16T14:59:36;20.60;99.90
24146;DHT22;12308;50.948;4.706;2022-10-16T15:02:32;20.60;99.90
24146;DHT22;12308;50.948;4.706;2022-10-16T15:05:13;20.60;99.90
24146;DHT22;12308;50.948;4.706;2022-10-16T15:07:38;20.50;99.90
24146;DHT22;12308;50.948;4.706;2022-10-16T15:10:04;20.50;99.90
24146;DHT22;12308;50.948;4.706;2022-10-16T15:12:30;20.50;99.90
24146;DHT22;12308;50.948;4.706;2022-10-16T15:14:56;20.40;99.90
24146;DHT22;12308;50.948;4.706;2022-10-16T15:17:21;20.40;99.90
24146;DHT22;12308;50.948;4.706;2022-10-16T15:19:47;20.20;99.90
24146;DHT22;12308;50.948;4.706;2022-10-16T15:22:13;20.20;99.90
24146;DHT22;12308;50.948;4.706;2022-10-16T15:24:38;20.20;99.90
24146;DHT22;12308;50.948;4.706;2022-10-16T15:27:04;20.30;99.90
24146;DHT22;12308;50.948;4.706;2022-10-16T15:29:30;20.30;99.90
24146;DHT22;12308;50.948;4.706;2022-10-16T15:31:56;20.30;99.90
24146;DHT22;12308;50.948;4.706;2022-10-16T15:34:22;20.20;99.90
24146;DHT22;12308;50.948;4.706;2022-10-16T15:36:47;20.20;99.90
24146;DHT22;12308;50.948;4.706;2022-10-16T15:39:17;20.20;99.90
24146;DHT22;12308;50.948;4.706;2022-10-16T15:41:45;20.10;99.90
24146;DHT22;12308;50.948;4.706;2022-10-16T15:44:16;20.00;99.90
24146;DHT22;12308;50.948;4.706;2022-10-16T15:46:42;19.90;99.90
24146;DHT22;12308;50.948;4.706;2022-10-16T15:49:08;19.90;99.90
24146;DHT22;12308;50.948;4.706;2022-10-16T15:51:38;19.90;99.90
24146;DHT22;12308;50.948;4.706;2022-10-16T15:54:04;19.80;99.90
24146;DHT22;12308;50.948;4.706;2022-10-16T15:56:30;19.80;99.90
24146;DHT22;12308;50.948;4.706;2022-10-16T15:59:01;19.70;99.90
24146;DHT22;12308;50.948;4.706;2022-10-16T16:01:27;19.60;99.90
24146;DHT22;12308;50.948;4.706;2022-10-16T16:03:55;19.50;99.90
24146;DHT22;12308;50.948;4.706;2022-10-16T16:06:22;19.40;99.90
24146;DHT22;12308;50.948;4.706;2022-10-16T16:08:49;19.40;99.90
24146;DHT22;12308;50.948;4.706;2022-10-16T16:11:18;19.30;99.90
24146;DHT22;12308;50.948;4.706;2022-10-16T16:13:44;19.30;99.90
24146;DHT22;12308;50.948;4.706;2022-10-16T16:16:11;19.20;99.90
24146;DHT22;12308;50.948;4.706;2022-10-16T16:18:37;19.10;99.90
24146;DHT22;12308;50.948;4.706;2022-10-16T16:21:04;19.10;99.90
24146;DHT22;12308;50.948;4.706;2022-10-16T16:23:30;19.10;99.90
24146;DHT22;12308;50.948;4.706;2022-10-16T16:26:04;19.00;99.90
24146;DHT22;12308;50.948;4.706;2022-10-16T16:28:30;19.10;99.90
24146;DHT22;12308;50.948;4.706;2022-10-16T16:30:56;19.00;99.90
24146;DHT22;12308;50.948;4.706;2022-10-16T16:33:21;18.80;99.90
24146;DHT22;12308;50.948;4.706;2022-10-16T16:35:47;18.90;99.90
24146;DHT22;12308;50.948;4.706;2022-10-16T16:38:13;18.90;99.90
24146;DHT22;12308;50.948;4.706;2022-10-16T16:40:38;18.70;99.90
24146;DHT22;12308;50.948;4.706;2022-10-16T16:43:04;18.80;99.90
24146;DHT22;12308;50.948;4.706;2022-10-16T16:45:29;18.70;99.90
24146;DHT22;12308;50.948;4.706;2022-10-16T16:47:55;18.70;99.90
24146;DHT22;12308;50.948;4.706;2022-10-16T16:50:21;18.60;99.90
24146;DHT22;12308;50.948;4.706;2022-10-16T16:52:46;18.60;99.90
24146;DHT22;12308;50.948;4.706;2022-10-16T16:55:12;18.70;99.90
24146;DHT22;12308;50.948;4.706;2022-10-16T16:57:37;18.60;99.90
24146;DHT22;12308;50.948;4.706;2022-10-16T17:00:04;18.50;99.90
24146;DHT22;12308;50.948;4.706;2022-10-16T17:02:29;18.70;99.90
24146;DHT22;12308;50.948;4.706;2022-10-16T17:04:55;18.70;99.90
24146;DHT22;12308;50.948;4.706;2022-10-16T17:07:22;18.70;99.90
24146;DHT22;12308;50.948;4.706;2022-10-16T17:09:50;18.50;99.90
24146;DHT22;12308;50.948;4.706;2022-10-16T17:12:16;18.50;99.90
24146;DHT22;12308;50.948;4.706;2022-10-16T17:14:41;18.40;99.90
24146;DHT22;12308;50.948;4.706;2022-10-16T17:17:07;18.40;99.90
24146;DHT22;12308;50.948;4.706;2022-10-16T17:19:32;18.30;99.90
24146;DHT22;12308;50.948;4.706;2022-10-16T17:21:58;18.30;99.90
24146;DHT22;12308;50.948;4.706;2022-10-16T17:24:24;18.40;99.90
24146;DHT22;12308;50.948;4.706;2022-10-16T17:26:49;18.30;99.90
24146;DHT22;12308;50.948;4.706;2022-10-16T17:29:16;18.10;99.90
24146;DHT22;12308;50.948;4.706;2022-10-16T17:31:43;17.80;99.90
24146;DHT22;12308;50.948;4.706;2022-10-16T17:34:09;17.60;99.90
24146;DHT22;12308;50.948;4.706;2022-10-16T17:36:37;17.60;99.90
24146;DHT22;12308;50.948;4.706;2022-10-16T17:39:07;17.50;99.90
24146;DHT22;12308;50.948;4.706;2022-10-16T17:41:34;17.50;99.90
24146;DHT22;12308;50.948;4.706;2022-10-16T17:44:00;17.30;99.90
24146;DHT22;12308;50.948;4.706;2022-10-16T17:46:26;17.30;99.90